CLH3KP LIMC-LOWI
Flight info
| Callsign | CLH3KP |
|---|---|
| Flight time | N/A |
| Altitude | 18000 |
| Route | OSKOR M985 TAGIP/N0413F220 T876 EKPIS/N0379F160 M726 BRENO BRENO4B |
| Aircraft | A319/M-SDE3FGHIRWY/LB1 |
Departure
| Time | 2026-04-30 19:55 |
|---|---|
| Airport | Milan Malpensa International Airport (LIMC) |
Arrival
| Time | N/A |
|---|---|
| Airport | Innsbruck Airport (LOWI) |
| Time | Latitude | Longitude | Altitude | Speed | Heading |
|---|---|---|---|---|---|
| 2026-04-30 19:32 | 45.62858 | 8.71587 | 739 ft | 0 kts | 170° |
| 2026-04-30 19:44 | 45.62861 | 8.71586 | 740 ft | 3 kts | 170° |
| 2026-04-30 19:44 | 45.62879 | 8.71581 | 739 ft | 3 kts | 170° |
| 2026-04-30 19:45 | 45.62896 | 8.71577 | 738 ft | 3 kts | 170° |
| 2026-04-30 19:45 | 45.62913 | 8.71573 | 740 ft | 2 kts | 134° |
| 2026-04-30 19:45 | 45.62920 | 8.71557 | 741 ft | 0 kts | 70° |
| 2026-04-30 19:48 | 45.62922 | 8.71565 | 740 ft | 2 kts | 65° |
| 2026-04-30 19:48 | 45.62937 | 8.71609 | 741 ft | 7 kts | 66° |
| 2026-04-30 19:49 | 45.62957 | 8.71692 | 742 ft | 10 kts | 77° |
| 2026-04-30 19:49 | 45.62970 | 8.71942 | 739 ft | 15 kts | 133° |
| 2026-04-30 19:49 | 45.62864 | 8.71976 | 739 ft | 17 kts | 169° |
| 2026-04-30 19:50 | 45.62743 | 8.72009 | 736 ft | 18 kts | 171° |
| 2026-04-30 19:50 | 45.62611 | 8.72043 | 734 ft | 21 kts | 169° |
| 2026-04-30 19:50 | 45.62462 | 8.72085 | 732 ft | 23 kts | 168° |
| 2026-04-30 19:50 | 45.62378 | 8.72146 | 730 ft | 9 kts | 127° |
| 2026-04-30 19:51 | 45.62333 | 8.72228 | 730 ft | 12 kts | 146° |
| 2026-04-30 19:51 | 45.62247 | 8.72274 | 727 ft | 15 kts | 143° |
| 2026-04-30 19:51 | 45.62239 | 8.72417 | 726 ft | 17 kts | 83° |
| 2026-04-30 19:51 | 45.62260 | 8.72587 | 725 ft | 18 kts | 77° |
| 2026-04-30 19:52 | 45.62283 | 8.72767 | 726 ft | 19 kts | 82° |
| 2026-04-30 19:52 | 45.62307 | 8.72961 | 725 ft | 18 kts | 90° |
| 2026-04-30 19:52 | 45.62246 | 8.73040 | 723 ft | 13 kts | 169° |
| 2026-04-30 19:52 | 45.62149 | 8.73067 | 721 ft | 16 kts | 169° |
| 2026-04-30 19:53 | 45.62032 | 8.73097 | 720 ft | 19 kts | 170° |
| 2026-04-30 19:53 | 45.61894 | 8.73134 | 715 ft | 22 kts | 169° |
| 2026-04-30 19:53 | 45.61748 | 8.73212 | 713 ft | 24 kts | 137° |
| 2026-04-30 19:53 | 45.61645 | 8.73416 | 702 ft | 27 kts | 123° |
| 2026-04-30 19:54 | 45.61588 | 8.73611 | 705 ft | 15 kts | 87° |
| 2026-04-30 19:54 | 45.61644 | 8.73723 | 704 ft | 16 kts | 8° |
| 2026-04-30 19:54 | 45.61756 | 8.73699 | 702 ft | 22 kts | 353° |
| 2026-04-30 19:54 | 45.62196 | 8.73578 | 719 ft | 104 kts | 349° |
| 2026-04-30 19:55 | 45.63133 | 8.73321 | 740 ft | 166 kts | 349° |
| 2026-04-30 19:55 | 45.64248 | 8.73037 | 1552 ft | 152 kts | 351° |
| 2026-04-30 19:55 | 45.65257 | 8.72804 | 2386 ft | 145 kts | 352° |
| 2026-04-30 19:55 | 45.66272 | 8.73039 | 2792 ft | 162 kts | 39° |
| 2026-04-30 19:56 | 45.66796 | 8.74508 | 3133 ft | 182 kts | 91° |
| 2026-04-30 19:56 | 45.66467 | 8.76359 | 3572 ft | 202 kts | 109° |
| 2026-04-30 19:56 | 45.66463 | 8.78388 | 4209 ft | 214 kts | 68° |
| 2026-04-30 19:56 | 45.67467 | 8.79938 | 5087 ft | 218 kts | 28° |
| 2026-04-30 19:57 | 45.68870 | 8.80947 | 5810 ft | 234 kts | 36° |
| 2026-04-30 19:57 | 45.69802 | 8.82830 | 6668 ft | 240 kts | 74° |
| 2026-04-30 19:57 | 45.69821 | 8.85221 | 7598 ft | 244 kts | 105° |
| 2026-04-30 19:57 | 45.69168 | 8.87472 | 8592 ft | 246 kts | 114° |
| 2026-04-30 19:58 | 45.68469 | 8.89680 | 9562 ft | 250 kts | 113° |
| 2026-04-30 19:58 | 45.67752 | 8.91963 | 10504 ft | 254 kts | 112° |
| 2026-04-30 19:58 | 45.67027 | 8.94291 | 11382 ft | 258 kts | 111° |
| 2026-04-30 19:58 | 45.66294 | 8.96666 | 12279 ft | 262 kts | 111° |
| 2026-04-30 19:59 | 45.65558 | 8.99052 | 13144 ft | 266 kts | 111° |
| 2026-04-30 19:59 | 45.64870 | 9.01510 | 14018 ft | 268 kts | 102° |
| 2026-04-30 19:59 | 45.64608 | 9.07051 | 14887 ft | 302 kts | 86° |
| 2026-04-30 20:00 | 45.64646 | 9.10173 | 15131 ft | 326 kts | 86° |
| 2026-04-30 20:00 | 45.64684 | 9.13521 | 15320 ft | 349 kts | 86° |
| 2026-04-30 20:00 | 45.64711 | 9.17101 | 15686 ft | 365 kts | 86° |
| 2026-04-30 20:00 | 45.64727 | 9.20759 | 16344 ft | 370 kts | 86° |
| 2026-04-30 20:01 | 45.64749 | 9.28180 | 17787 ft | 378 kts | 86° |
| 2026-04-30 20:01 | 45.64759 | 9.31954 | 18187 ft | 380 kts | 86° |
| 2026-04-30 20:01 | 45.64769 | 9.35758 | 18290 ft | 389 kts | 86° |
| 2026-04-30 20:02 | 45.64805 | 9.43849 | 18235 ft | 417 kts | 86° |
| 2026-04-30 20:02 | 45.64820 | 9.48014 | 18221 ft | 420 kts | 86° |
| 2026-04-30 20:03 | 45.64834 | 9.56366 | 18299 ft | 421 kts | 86° |
| 2026-04-30 20:03 | 45.64836 | 9.60551 | 18302 ft | 421 kts | 86° |
| 2026-04-30 20:03 | 45.64841 | 9.64737 | 18301 ft | 421 kts | 86° |
| 2026-04-30 20:03 | 45.64853 | 9.68864 | 18301 ft | 421 kts | 86° |
| 2026-04-30 20:04 | 45.64870 | 9.73049 | 18304 ft | 420 kts | 86° |
| 2026-04-30 20:04 | 45.64886 | 9.77228 | 18301 ft | 420 kts | 86° |
| 2026-04-30 20:04 | 45.64896 | 9.81399 | 18300 ft | 420 kts | 86° |
| 2026-04-30 20:05 | 45.64908 | 9.89766 | 18295 ft | 420 kts | 86° |
| 2026-04-30 20:05 | 45.64916 | 9.93937 | 18294 ft | 421 kts | 86° |
| 2026-04-30 20:05 | 45.64920 | 10.02312 | 18291 ft | 421 kts | 86° |
| 2026-04-30 20:06 | 45.65013 | 10.06481 | 18295 ft | 418 kts | 80° |
| 2026-04-30 20:06 | 45.65557 | 10.10531 | 18295 ft | 413 kts | 70° |
| 2026-04-30 20:06 | 45.66568 | 10.14351 | 18295 ft | 409 kts | 61° |
| 2026-04-30 20:06 | 45.68007 | 10.17835 | 18294 ft | 406 kts | 52° |
| 2026-04-30 20:07 | 45.69658 | 10.21108 | 18294 ft | 406 kts | 52° |
| 2026-04-30 20:07 | 45.71306 | 10.24395 | 18322 ft | 406 kts | 52° |
| 2026-04-30 20:07 | 45.74577 | 10.30966 | 18317 ft | 405 kts | 52° |
| 2026-04-30 20:08 | 45.76208 | 10.34250 | 18311 ft | 404 kts | 52° |
| 2026-04-30 20:08 | 45.77833 | 10.37527 | 18305 ft | 403 kts | 52° |
| 2026-04-30 20:08 | 45.79439 | 10.40766 | 18306 ft | 403 kts | 52° |
| 2026-04-30 20:08 | 45.81059 | 10.44037 | 18301 ft | 402 kts | 52° |
| 2026-04-30 20:09 | 45.82676 | 10.47303 | 18300 ft | 402 kts | 52° |
| 2026-04-30 20:09 | 45.84294 | 10.50576 | 18297 ft | 402 kts | 52° |
| 2026-04-30 20:09 | 45.87522 | 10.57113 | 18296 ft | 402 kts | 52° |
| 2026-04-30 20:10 | 45.90744 | 10.63662 | 18302 ft | 401 kts | 52° |
| 2026-04-30 20:10 | 45.92447 | 10.66829 | 18301 ft | 399 kts | 46° |
| 2026-04-30 20:10 | 45.94479 | 10.69515 | 18303 ft | 397 kts | 37° |
| 2026-04-30 20:11 | 45.99238 | 10.73497 | 18285 ft | 395 kts | 28° |
| 2026-04-30 20:11 | 46.01669 | 10.75359 | 18318 ft | 396 kts | 28° |
| 2026-04-30 20:11 | 46.04100 | 10.77229 | 18310 ft | 396 kts | 28° |
| 2026-04-30 20:12 | 46.08927 | 10.80948 | 18309 ft | 396 kts | 28° |
| 2026-04-30 20:12 | 46.11349 | 10.82817 | 18307 ft | 394 kts | 28° |
| 2026-04-30 20:12 | 46.13750 | 10.84673 | 18301 ft | 392 kts | 28° |
| 2026-04-30 20:13 | 46.16165 | 10.86540 | 18309 ft | 394 kts | 28° |
| 2026-04-30 20:13 | 46.18595 | 10.88418 | 18304 ft | 394 kts | 28° |
| 2026-04-30 20:13 | 46.21018 | 10.90294 | 18306 ft | 395 kts | 28° |
| 2026-04-30 20:13 | 46.23439 | 10.92170 | 18323 ft | 395 kts | 28° |
| 2026-04-30 20:14 | 46.25862 | 10.94049 | 18327 ft | 395 kts | 28° |
| 2026-04-30 20:14 | 46.28278 | 10.95926 | 18330 ft | 395 kts | 28° |
| 2026-04-30 20:14 | 46.30695 | 10.97806 | 18331 ft | 394 kts | 28° |
| 2026-04-30 20:14 | 46.33112 | 10.99689 | 18332 ft | 394 kts | 28° |
| 2026-04-30 20:15 | 46.35528 | 11.01575 | 18332 ft | 394 kts | 28° |
| 2026-04-30 20:15 | 46.37940 | 11.03458 | 18331 ft | 394 kts | 28° |
| 2026-04-30 20:15 | 46.40357 | 11.05342 | 18333 ft | 394 kts | 28° |
| 2026-04-30 20:15 | 46.42770 | 11.07218 | 18290 ft | 394 kts | 28° |
| 2026-04-30 20:16 | 46.45181 | 11.09096 | 18277 ft | 394 kts | 28° |
| 2026-04-30 20:16 | 46.47595 | 11.10982 | 18280 ft | 393 kts | 29° |
| 2026-04-30 20:16 | 46.50002 | 11.12866 | 18281 ft | 393 kts | 28° |
| 2026-04-30 20:16 | 46.52397 | 11.14746 | 18273 ft | 393 kts | 29° |
| 2026-04-30 20:17 | 46.54789 | 11.16630 | 18281 ft | 394 kts | 29° |
| 2026-04-30 20:17 | 46.57187 | 11.18526 | 18284 ft | 394 kts | 29° |
| 2026-04-30 20:17 | 46.59586 | 11.20421 | 18271 ft | 393 kts | 29° |
| 2026-04-30 20:17 | 46.61987 | 11.22311 | 18272 ft | 392 kts | 29° |
| 2026-04-30 20:18 | 46.64384 | 11.24197 | 18262 ft | 392 kts | 29° |
| 2026-04-30 20:18 | 46.66782 | 11.26086 | 18266 ft | 391 kts | 29° |
| 2026-04-30 20:18 | 46.69191 | 11.27989 | 18267 ft | 391 kts | 29° |
| 2026-04-30 20:18 | 46.71581 | 11.29885 | 18269 ft | 392 kts | 29° |
| 2026-04-30 20:19 | 46.73974 | 11.31786 | 18268 ft | 392 kts | 29° |
| 2026-04-30 20:19 | 46.75574 | 11.33056 | 18264 ft | 391 kts | 29° |
| 2026-04-30 20:19 | 46.78858 | 11.35095 | 17973 ft | 380 kts | 18° |
| 2026-04-30 20:19 | 46.81436 | 11.35876 | 17243 ft | 377 kts | 9° |
| 2026-04-30 20:20 | 46.84060 | 11.36141 | 16550 ft | 378 kts | 5° |
| 2026-04-30 20:20 | 46.86666 | 11.36374 | 15935 ft | 375 kts | 6° |
| 2026-04-30 20:20 | 46.89259 | 11.36639 | 15297 ft | 373 kts | 5° |
| 2026-04-30 20:20 | 46.91863 | 11.36435 | 14603 ft | 374 kts | 353° |
| 2026-04-30 20:21 | 46.94388 | 11.35397 | 14336 ft | 381 kts | 341° |
| 2026-04-30 20:21 | 46.96740 | 11.33575 | 14230 ft | 385 kts | 329° |
| 2026-04-30 20:21 | 46.98800 | 11.31050 | 14264 ft | 392 kts | 317° |
| 2026-04-30 20:21 | 47.00475 | 11.27871 | 14267 ft | 397 kts | 304° |
| 2026-04-30 20:22 | 47.01649 | 11.24205 | 14264 ft | 400 kts | 294° |
| 2026-04-30 20:22 | 47.02666 | 11.20388 | 14268 ft | 400 kts | 294° |
| 2026-04-30 20:22 | 47.03677 | 11.16589 | 14262 ft | 401 kts | 294° |
| 2026-04-30 20:22 | 47.04684 | 11.12822 | 14254 ft | 402 kts | 295° |
| 2026-04-30 20:23 | 47.05708 | 11.09003 | 14259 ft | 403 kts | 295° |
| 2026-04-30 20:23 | 47.06735 | 11.05174 | 14260 ft | 404 kts | 294° |
| 2026-04-30 20:23 | 47.07764 | 11.01325 | 14271 ft | 406 kts | 294° |
| 2026-04-30 20:23 | 47.08794 | 10.97459 | 14267 ft | 406 kts | 294° |
| 2026-04-30 20:24 | 47.09818 | 10.93602 | 14269 ft | 405 kts | 294° |
| 2026-04-30 20:24 | 47.10836 | 10.89763 | 14259 ft | 405 kts | 294° |
| 2026-04-30 20:24 | 47.11854 | 10.85917 | 14259 ft | 405 kts | 294° |
| 2026-04-30 20:24 | 47.12871 | 10.82062 | 14265 ft | 404 kts | 294° |
| 2026-04-30 20:25 | 47.14839 | 10.74548 | 14251 ft | 374 kts | 294° |
| 2026-04-30 20:25 | 47.15764 | 10.71133 | 14261 ft | 344 kts | 299° |
| 2026-04-30 20:26 | 47.18389 | 10.65823 | 13937 ft | 310 kts | 321° |
| 2026-04-30 20:26 | 47.21868 | 10.62376 | 13244 ft | 299 kts | 336° |
| 2026-04-30 20:26 | 47.23711 | 10.60964 | 12992 ft | 297 kts | 339° |
| 2026-04-30 20:27 | 47.27402 | 10.61340 | 12943 ft | 256 kts | 37° |
| 2026-04-30 20:27 | 47.29022 | 10.65524 | 12960 ft | 240 kts | 79° |
| 2026-04-30 20:28 | 47.29328 | 10.70416 | 12957 ft | 240 kts | 85° |
| 2026-04-30 20:28 | 47.29537 | 10.75331 | 12951 ft | 240 kts | 84° |
| 2026-04-30 20:29 | 47.29760 | 10.80227 | 12971 ft | 239 kts | 83° |
| 2026-04-30 20:30 | 47.30112 | 10.87551 | 12980 ft | 238 kts | 83° |
| 2026-04-30 20:30 | 47.30461 | 10.94745 | 12978 ft | 223 kts | 83° |
| 2026-04-30 20:31 | 47.30766 | 11.01193 | 12631 ft | 196 kts | 83° |
| 2026-04-30 20:32 | 47.30965 | 11.06386 | 10942 ft | 193 kts | 92° |
| 2026-04-30 20:32 | 47.30115 | 11.10139 | 9553 ft | 194 kts | 113° |
| 2026-04-30 20:33 | 47.29527 | 11.11918 | 8972 ft | 187 kts | 115° |